Time;durP1;ratioP1;P1;durP2;ratioP2;P2;SDS_P1;SDS_P2;PMS_P1;PMS_P2;Temp;Humidity;BMP_temperature;BMP_pressure;BME280_temperature;BME280_humidity;BME280_pressure;Samples;Min_cycle;Max_cycle;Signal;HPM_P1;HPM_P2
2022/10/15 00:01:20;;;;;;;28.00;25.03;;;15.60;99.90;;;;;;4997622;28;20199;-82
2022/10/15 00:03:46;;;;;;;26.87;24.03;;;15.60;99.90;;;;;;4997722;28;20316;-85
2022/10/15 00:06:15;;;;;;;28.07;25.27;;;15.60;99.90;;;;;;4998170;28;20171;-82
2022/10/15 00:08:42;;;;;;;26.93;24.10;;;15.50;99.90;;;;;;4997979;28;20271;-84
2022/10/15 00:11:14;;;;;;;28.43;25.43;;;15.60;99.90;;;;;;4997727;28;20211;-86
2022/10/15 00:13:40;;;;;;;27.43;24.80;;;15.50;99.90;;;;;;4996046;28;20171;-80
2022/10/15 00:16:09;;;;;;;27.50;24.70;;;15.70;99.90;;;;;;4995468;28;20175;-82
2022/10/15 00:18:35;;;;;;;26.97;24.20;;;15.80;99.90;;;;;;4995474;28;20171;-84
2022/10/15 00:21:03;;;;;;;25.93;23.33;;;15.70;99.90;;;;;;4995125;28;20531;-84
2022/10/15 00:23:30;;;;;;;26.97;24.07;;;15.70;99.90;;;;;;4995775;28;20242;-83
2022/10/15 00:26:11;;;;;;;25.80;23.10;;;15.70;99.90;;;;;;4994747;28;20654;-81
2022/10/15 00:28:37;;;;;;;24.20;21.77;;;15.70;99.90;;;;;;4979987;28;20172;-82
2022/10/15 00:31:07;;;;;;;23.87;21.47;;;15.60;99.90;;;;;;4955324;28;20625;-81
2022/10/15 00:33:33;;;;;;;23.77;21.27;;;15.60;99.90;;;;;;4955572;28;20223;-81
2022/10/15 00:36:01;;;;;;;22.80;20.60;;;15.60;99.90;;;;;;4954395;29;20179;-82
2022/10/15 00:38:27;;;;;;;22.23;20.00;;;15.70;99.90;;;;;;4954623;28;20637;-81
2022/10/15 00:40:53;;;;;;;23.83;21.33;;;15.70;99.90;;;;;;4954002;29;20175;-82
2022/10/15 00:43:34;;;;;;;23.97;20.63;;;15.70;99.90;;;;;;4969476;28;20176;-84
2022/10/15 00:46:00;;;;;;;22.63;20.23;;;15.70;99.90;;;;;;4954186;28;20548;-83
2022/10/15 00:48:27;;;;;;;21.30;19.13;;;15.70;99.90;;;;;;4954890;28;20176;-86
2022/10/15 00:50:53;;;;;;;22.93;19.77;;;15.60;99.90;;;;;;4954425;28;20168;-83
2022/10/15 00:53:22;;;;;;;21.43;18.70;;;15.60;99.90;;;;;;4962431;28;20207;-81
2022/10/15 00:55:49;;;;;;;21.77;19.57;;;15.60;99.90;;;;;;4961771;28;20169;-80
2022/10/15 00:58:21;;;;;;;20.83;18.83;;;15.60;99.90;;;;;;4959627;29;20211;-80
2022/10/15 01:00:47;;;;;;;23.03;19.27;;;15.50;99.90;;;;;;4959190;28;20232;-80
2022/10/15 01:03:12;;;;;;;19.50;17.70;;;15.50;99.90;;;;;;4959172;28;20198;-81
2022/10/15 01:05:39;;;;;;;19.20;17.30;;;15.40;99.90;;;;;;4957409;29;20185;-82
2022/10/15 01:08:05;;;;;;;19.87;17.77;;;15.40;99.90;;;;;;4957492;29;20176;-81
2022/10/15 01:10:59;;;;;;;19.33;17.43;;;15.40;99.90;;;;;;4959115;28;20196;-81
2022/10/15 01:13:34;;;;;;;19.60;17.60;;;15.40;99.90;;;;;;4971164;28;20173;-84
2022/10/15 01:16:27;;;;;;;19.97;17.97;;;15.40;99.90;;;;;;4981750;28;20172;-81
2022/10/15 01:19:09;;;;;;;19.90;18.00;;;15.30;99.90;;;;;;4973739;28;20272;-81
2022/10/15 01:21:49;;;;;;;20.17;17.67;;;15.20;99.90;;;;;;4966835;29;20192;-82
2022/10/15 01:24:41;;;;;;;20.03;18.00;;;15.20;99.90;;;;;;4963118;29;20216;-84
2022/10/15 01:27:37;;;;;;;20.03;17.90;;;15.10;99.90;;;;;;4961951;28;20628;-84
2022/10/15 01:30:26;;;;;;;20.77;18.73;;;15.20;99.90;;;;;;4959065;28;20184;-82
2022/10/15 01:33:02;;;;;;;20.40;18.27;;;15.30;99.90;;;;;;4958112;29;20180;-82
2022/10/15 01:35:57;;;;;;;19.03;17.23;;;15.20;99.90;;;;;;4958565;29;20168;-85
2022/10/15 01:38:38;;;;;;;20.13;18.13;;;15.20;99.90;;;;;;4958447;28;20196;-85
2022/10/15 01:41:27;;;;;;;21.17;19.07;;;15.20;99.90;;;;;;4962148;28;20251;-83
2022/10/15 01:44:01;;;;;;;21.40;19.20;;;15.30;99.90;;;;;;4975082;28;20218;-84
2022/10/15 01:46:38;;;;;;;20.43;18.47;;;15.20;99.90;;;;;;4961298;28;20182;-82
2022/10/15 01:49:05;;;;;;;22.97;20.43;;;15.30;99.90;;;;;;4974495;28;20184;-85
2022/10/15 01:51:35;;;;;;;22.20;19.63;;;15.20;99.90;;;;;;4963054;28;20251;-84
2022/10/15 01:54:04;;;;;;;21.63;19.33;;;15.30;99.90;;;;;;4951930;29;20188;-84
2022/10/15 01:56:32;;;;;;;22.33;19.93;;;15.30;99.90;;;;;;4973372;29;20169;-81
2022/10/15 01:58:59;;;;;;;22.33;20.03;;;15.20;99.90;;;;;;4973567;28;20174;-82
2022/10/15 02:01:24;;;;;;;21.83;19.63;;;15.30;99.90;;;;;;4983000;28;20196;-84
2022/10/15 02:03:52;;;;;;;22.90;19.97;;;15.30;99.90;;;;;;4959202;28;20207;-83
2022/10/15 02:06:24;;;;;;;24.77;22.17;;;15.50;99.90;;;;;;4957965;29;20216;-84
2022/10/15 02:08:57;;;;;;;25.00;22.30;;;15.50;99.90;;;;;;4959593;28;20179;-81
2022/10/15 02:11:23;;;;;;;24.50;21.80;;;15.70;99.90;;;;;;4962562;28;20230;-83
2022/10/15 02:13:51;;;;;;;25.70;22.93;;;15.60;99.90;;;;;;4970110;28;20172;-81
2022/10/15 02:16:42;;;;;;;25.00;22.40;;;15.50;99.90;;;;;;4976089;28;20184;-79
2022/10/15 02:19:37;;;;;;;25.27;22.37;;;15.40;99.90;;;;;;4979588;28;20232;-84
2022/10/15 02:22:11;;;;;;;26.83;23.87;;;15.30;99.90;;;;;;4969430;28;20173;-85
2022/10/15 02:24:47;;;;;;;28.03;23.93;;;15.30;99.90;;;;;;4959318;28;20211;-85
2022/10/15 02:27:15;;;;;;;26.90;22.87;;;15.20;99.90;;;;;;4959276;28;20200;-85
2022/10/15 02:29:42;;;;;;;26.20;23.40;;;15.10;99.90;;;;;;4958230;29;20643;-84
2022/10/15 02:32:10;;;;;;;28.73;24.13;;;15.00;99.90;;;;;;4957948;28;20182;-81
2022/10/15 02:34:36;;;;;;;27.63;24.17;;;15.20;99.90;;;;;;4965026;28;20176;-80
2022/10/15 02:37:06;;;;;;;26.23;23.47;;;15.20;99.90;;;;;;4966778;28;20176;-80
2022/10/15 02:39:33;;;;;;;25.97;23.17;;;15.10;99.90;;;;;;4959806;28;20184;-84
2022/10/15 02:41:59;;;;;;;28.03;23.90;;;15.10;99.90;;;;;;4965252;29;20235;-84
2022/10/15 02:44:26;;;;;;;25.20;22.40;;;15.10;99.90;;;;;;4942774;29;20220;-85
2022/10/15 02:46:52;;;;;;;26.60;23.67;;;15.20;99.90;;;;;;4961358;28;20708;-83
2022/10/15 02:49:18;;;;;;;24.83;22.23;;;15.30;99.90;;;;;;4958771;29;20203;-83
2022/10/15 02:51:44;;;;;;;26.00;22.97;;;15.20;99.90;;;;;;4963506;29;20177;-83
2022/10/15 02:54:11;;;;;;;26.47;22.33;;;15.10;99.90;;;;;;4962756;29;20180;-86
2022/10/15 02:56:38;;;;;;;25.70;22.53;;;15.20;99.90;;;;;;4961703;29;20207;-83
2022/10/15 02:59:05;;;;;;;24.60;22.00;;;15.20;99.90;;;;;;4966549;28;20183;-84
2022/10/15 03:01:31;;;;;;;23.97;20.90;;;15.20;99.90;;;;;;4970642;28;20180;-85
2022/10/15 03:03:58;;;;;;;24.63;21.20;;;15.30;99.90;;;;;;4962605;28;20610;-80
2022/10/15 03:06:23;;;;;;;25.67;21.13;;;15.10;99.90;;;;;;4943439;29;20172;-84
2022/10/15 03:08:49;;;;;;;23.90;21.57;;;15.10;99.90;;;;;;4958175;28;20235;-82
2022/10/15 03:11:15;;;;;;;23.27;20.80;;;15.20;99.90;;;;;;4957315;28;20180;-82
2022/10/15 03:13:41;;;;;;;23.23;20.87;;;15.10;99.90;;;;;;4957224;28;20172;-82
2022/10/15 03:16:08;;;;;;;23.00;20.50;;;15.20;99.90;;;;;;4955716;28;20190;-84
2022/10/15 03:18:35;;;;;;;22.13;19.83;;;15.10;99.90;;;;;;4956278;28;20198;-84
2022/10/15 03:21:02;;;;;;;21.30;19.07;;;15.10;99.90;;;;;;4955421;29;20177;-86
2022/10/15 03:23:28;;;;;;;21.20;19.03;;;15.10;99.90;;;;;;4958640;29;20204;-85
2022/10/15 03:25:54;;;;;;;21.93;19.63;;;15.10;99.90;;;;;;4958104;29;20184;-85
2022/10/15 03:28:21;;;;;;;20.77;18.53;;;15.20;99.90;;;;;;4958286;28;20180;-85
2022/10/15 03:30:46;;;;;;;21.47;19.30;;;15.20;99.90;;;;;;4955406;29;20212;-86
2022/10/15 03:33:12;;;;;;;21.43;19.33;;;15.10;99.90;;;;;;4955376;29;20200;-83
2022/10/15 03:35:38;;;;;;;21.17;18.93;;;15.00;99.90;;;;;;4956192;29;20204;-85
2022/10/15 03:38:05;;;;;;;21.43;18.80;;;15.00;99.90;;;;;;4955353;29;20231;-85
2022/10/15 03:40:31;;;;;;;21.73;18.93;;;14.90;99.90;;;;;;4956954;28;20229;-83
2022/10/15 03:42:57;;;;;;;25.17;20.47;;;14.90;99.90;;;;;;4953739;29;20180;-80
2022/10/15 03:45:24;;;;;;;23.40;20.97;;;14.80;99.90;;;;;;4955632;28;20212;-84
2022/10/15 03:47:50;;;;;;;23.00;20.57;;;14.80;99.90;;;;;;4954452;28;20256;-85
2022/10/15 03:50:17;;;;;;;23.97;21.30;;;14.90;99.90;;;;;;4970539;28;20180;-80
2022/10/15 03:52:43;;;;;;;24.27;21.87;;;14.90;99.90;;;;;;4953927;29;20535;-82
2022/10/15 03:55:10;;;;;;;24.07;21.57;;;14.90;99.90;;;;;;4958658;28;20168;-82
2022/10/15 03:57:40;;;;;;;23.57;21.03;;;14.90;99.90;;;;;;4966715;28;20224;-81
2022/10/15 04:00:07;;;;;;;22.87;20.47;;;14.80;99.90;;;;;;4973733;29;20192;-80
2022/10/15 04:02:33;;;;;;;22.77;20.47;;;14.80;99.90;;;;;;4973756;28;20204;-80
2022/10/15 04:05:03;;;;;;;22.17;19.97;;;14.80;99.90;;;;;;4964181;28;20204;-83
2022/10/15 04:07:29;;;;;;;22.20;20.00;;;14.80;99.90;;;;;;4956118;28;20212;-85
2022/10/15 04:09:57;;;;;;;21.03;18.90;;;14.70;99.90;;;;;;4954929;29;20179;-82
2022/10/15 04:12:23;;;;;;;19.60;17.60;;;14.70;99.90;;;;;;4955630;28;20558;-85
2022/10/15 04:14:49;;;;;;;19.83;17.07;;;14.60;99.90;;;;;;4954380;29;20188;-81
2022/10/15 04:17:15;;;;;;;18.70;16.80;;;14.60;99.90;;;;;;4956501;28;20176;-79
2022/10/15 04:19:40;;;;;;;18.50;16.50;;;14.50;99.90;;;;;;4973895;29;20181;-79
2022/10/15 04:22:06;;;;;;;17.33;15.57;;;14.50;99.90;;;;;;4969419;28;20653;-82
2022/10/15 04:24:32;;;;;;;16.10;14.50;;;14.60;99.90;;;;;;4976837;28;20196;-80
2022/10/15 04:27:00;;;;;;;17.33;15.53;;;14.40;99.90;;;;;;4962842;28;20528;-80
2022/10/15 04:29:32;;;;;;;17.33;15.63;;;14.50;99.90;;;;;;4959168;28;20207;-80
2022/10/15 04:32:00;;;;;;;16.83;15.20;;;14.50;99.90;;;;;;4958175;28;20262;-80
2022/10/15 04:34:29;;;;;;;16.33;14.63;;;14.50;99.90;;;;;;4958328;28;20176;-84
2022/10/15 04:37:06;;;;;;;16.23;14.63;;;14.50;99.90;;;;;;4959305;28;20239;-85
2022/10/15 04:39:32;;;;;;;15.73;13.97;;;14.60;99.90;;;;;;4958010;29;20180;-81
2022/10/15 04:41:58;;;;;;;17.13;15.43;;;14.60;99.90;;;;;;4958917;28;20172;-85
2022/10/15 04:44:23;;;;;;;16.83;15.13;;;14.70;99.90;;;;;;4956836;29;20618;-83
2022/10/15 04:46:49;;;;;;;16.10;14.33;;;14.70;99.90;;;;;;4958995;28;20666;-84
2022/10/15 04:49:15;;;;;;;15.37;13.73;;;14.70;99.90;;;;;;4958370;28;20194;-83
2022/10/15 04:51:41;;;;;;;15.43;13.83;;;14.70;99.90;;;;;;4957362;28;20667;-81
2022/10/15 04:54:07;;;;;;;14.17;12.77;;;14.70;99.90;;;;;;4958683;28;20172;-85
2022/10/15 04:56:32;;;;;;;14.17;12.67;;;14.70;99.90;;;;;;4957093;28;20179;-86
2022/10/15 04:58:58;;;;;;;12.90;11.53;;;14.60;99.90;;;;;;4957589;28;20641;-86
2022/10/15 05:01:24;;;;;;;13.67;12.10;;;14.70;99.90;;;;;;4957239;28;20672;-83
2022/10/15 05:03:49;;;;;;;15.77;13.30;;;14.60;99.90;;;;;;4957721;28;20215;-85
2022/10/15 05:06:20;;;;;;;13.17;11.70;;;14.80;99.90;;;;;;4957434;28;20220;-85
2022/10/15 05:08:46;;;;;;;13.70;12.13;;;14.70;99.90;;;;;;4956912;29;20188;-86
2022/10/15 05:11:23;;;;;;;14.20;10.90;;;14.70;99.90;;;;;;4957761;28;20270;-82
2022/10/15 05:13:50;;;;;;;11.33;10.17;;;14.70;99.90;;;;;;4957632;28;20176;-82
2022/10/15 05:16:22;;;;;;;12.73;10.30;;;14.80;99.90;;;;;;4955246;29;20196;-82
2022/10/15 05:18:50;;;;;;;11.23;10.03;;;14.70;99.90;;;;;;4958586;28;20173;-79
2022/10/15 05:21:17;;;;;;;12.00;9.97;;;14.70;99.90;;;;;;4958358;29;20280;-81
2022/10/15 05:23:43;;;;;;;11.23;10.03;;;14.70;99.90;;;;;;4958105;29;20211;-84
2022/10/15 05:26:14;;;;;;;12.27;10.77;;;14.70;99.90;;;;;;4957187;29;20179;-85
2022/10/15 05:28:40;;;;;;;11.40;9.70;;;14.70;99.90;;;;;;4957074;29;20534;-87
2022/10/15 05:31:11;;;;;;;13.70;11.00;;;14.80;99.90;;;;;;4972504;28;20185;-81
2022/10/15 05:33:37;;;;;;;11.80;9.77;;;14.80;99.90;;;;;;4956199;29;20220;-84
2022/10/15 05:36:17;;;;;;;13.33;9.73;;;14.80;99.90;;;;;;4957494;28;20172;-81
2022/10/15 05:38:54;;;;;;;9.93;8.93;;;14.80;99.90;;;;;;4957152;28;20183;-83
2022/10/15 05:41:21;;;;;;;10.53;9.27;;;14.90;99.90;;;;;;4956765;29;20566;-82
2022/10/15 05:43:48;;;;;;;12.23;9.77;;;14.90;99.90;;;;;;4961023;28;20623;-82
2022/10/15 05:46:14;;;;;;;10.13;8.90;;;15.00;99.90;;;;;;4959882;28;20184;-83
2022/10/15 05:48:40;;;;;;;11.23;9.23;;;15.00;99.90;;;;;;4958254;29;20204;-84
2022/10/15 05:51:12;;;;;;;11.10;9.53;;;15.10;99.90;;;;;;4958510;29;20600;-82
2022/10/15 05:53:39;;;;;;;9.97;8.50;;;15.10;99.90;;;;;;4958023;28;20223;-79
2022/10/15 05:56:06;;;;;;;10.50;9.13;;;15.10;99.90;;;;;;4958527;28;20182;-81
2022/10/15 05:58:33;;;;;;;10.20;8.70;;;15.00;99.90;;;;;;4962927;28;20155;-81
2022/10/15 06:01:01;;;;;;;10.80;8.10;;;15.00;99.90;;;;;;4956966;28;20192;-81
2022/10/15 06:03:27;;;;;;;8.73;7.10;;;14.90;99.90;;;;;;4955684;29;20184;-80
2022/10/15 06:05:53;;;;;;;8.57;7.67;;;14.90;99.90;;;;;;4956144;29;20219;-81
2022/10/15 06:08:20;;;;;;;10.17;8.00;;;14.90;99.90;;;;;;4957037;28;20172;-81
2022/10/15 06:10:46;;;;;;;8.67;7.50;;;14.90;99.90;;;;;;4955468;28;20204;-80
2022/10/15 06:13:12;;;;;;;9.27;7.37;;;14.90;99.90;;;;;;4956955;28;20621;-81
2022/10/15 06:15:43;;;;;;;9.60;7.77;;;14.90;99.90;;;;;;4954582;29;20184;-81
2022/10/15 06:18:10;;;;;;;8.40;6.80;;;14.80;99.90;;;;;;4955712;28;20272;-82
2022/10/15 06:20:36;;;;;;;9.70;7.03;;;14.80;99.90;;;;;;4955372;29;20182;-81
2022/10/15 06:23:04;;;;;;;9.27;7.50;;;14.90;99.90;;;;;;4955657;28;20176;-84
2022/10/15 06:25:29;;;;;;;9.47;7.33;;;14.90;99.90;;;;;;4955395;29;20622;-82
2022/10/15 06:27:55;;;;;;;10.17;7.30;;;14.90;99.90;;;;;;4975558;28;20175;-82
2022/10/15 06:30:21;;;;;;;9.00;6.77;;;14.90;99.90;;;;;;4986042;28;20188;-81
2022/10/15 06:32:48;;;;;;;9.37;7.43;;;15.00;99.90;;;;;;4982055;28;20210;-82
2022/10/15 06:35:14;;;;;;;8.97;6.97;;;15.00;99.90;;;;;;4974581;28;20250;-82
2022/10/15 06:37:39;;;;;;;8.37;6.80;;;14.90;99.90;;;;;;4975122;28;20612;-80
2022/10/15 06:40:05;;;;;;;8.50;6.87;;;15.00;99.90;;;;;;4975677;28;20168;-81
2022/10/15 06:42:31;;;;;;;10.07;7.43;;;15.10;99.90;;;;;;4990887;28;20548;-81
2022/10/15 06:44:57;;;;;;;9.23;7.17;;;15.00;99.90;;;;;;4974996;28;20223;-81
2022/10/15 06:47:22;;;;;;;8.43;6.63;;;15.00;99.90;;;;;;4974788;28;20687;-82
2022/10/15 06:49:48;;;;;;;8.37;7.20;;;15.00;99.90;;;;;;4974139;28;20184;-81
2022/10/15 06:52:14;;;;;;;8.03;6.73;;;15.20;99.90;;;;;;4975686;28;20168;-82
2022/10/15 06:54:40;;;;;;;10.77;6.87;;;15.20;99.90;;;;;;4974926;28;20180;-83
2022/10/15 06:57:06;;;;;;;9.63;7.00;;;15.10;99.90;;;;;;4974501;28;20180;-82
2022/10/15 06:59:31;;;;;;;8.43;5.83;;;15.10;99.90;;;;;;4976570;28;20175;-83
2022/10/15 07:01:57;;;;;;;8.90;6.77;;;15.10;99.90;;;;;;4990118;28;20205;-81
2022/10/15 07:04:23;;;;;;;8.67;6.63;;;15.10;99.90;;;;;;4983347;28;20215;-81
2022/10/15 07:06:49;;;;;;;8.10;6.40;;;15.10;99.90;;;;;;4991686;28;20687;-80
2022/10/15 07:09:14;;;;;;;7.67;6.47;;;15.30;99.90;;;;;;4993432;28;20203;-81
2022/10/15 07:11:40;;;;;;;9.77;6.60;;;15.30;99.90;;;;;;4983490;28;20186;-81
2022/10/15 07:14:11;;;;;;;7.77;6.30;;;15.30;99.90;;;;;;4976674;28;20172;-81
2022/10/15 07:16:38;;;;;;;11.00;6.53;;;15.40;99.90;;;;;;4973997;28;20191;-83
2022/10/15 07:19:17;;;;;;;7.80;7.00;;;15.40;99.90;;;;;;4990373;28;20185;-82
2022/10/15 07:21:43;;;;;;;7.37;6.13;;;15.50;99.90;;;;;;4975100;28;20179;-80
2022/10/15 07:24:09;;;;;;;9.37;7.00;;;15.40;99.90;;;;;;4975521;28;20206;-81
2022/10/15 07:26:34;;;;;;;8.77;6.27;;;15.50;99.90;;;;;;4980042;28;20184;-83
2022/10/15 07:29:00;;;;;;;8.43;6.93;;;15.50;99.90;;;;;;4983414;28;20169;-81
2022/10/15 07:31:27;;;;;;;7.67;6.13;;;15.70;99.90;;;;;;4986297;28;20228;-81
2022/10/15 07:33:53;;;;;;;6.60;5.90;;;15.60;99.90;;;;;;4978352;28;20202;-80
2022/10/15 07:36:19;;;;;;;7.03;6.07;;;15.60;99.90;;;;;;4973627;28;20699;-82
2022/10/15 07:38:45;;;;;;;8.90;6.13;;;15.60;99.90;;;;;;4973789;28;20185;-82
2022/10/15 07:41:11;;;;;;;7.13;5.90;;;15.70;99.90;;;;;;4974203;28;20656;-81
2022/10/15 07:43:37;;;;;;;6.97;5.57;;;15.80;99.90;;;;;;4973548;28;20229;-83
2022/10/15 07:46:04;;;;;;;5.93;4.87;;;15.70;99.90;;;;;;4989679;28;20218;-83
2022/10/15 07:48:30;;;;;;;4.93;4.23;;;15.80;99.90;;;;;;4973194;28;20188;-82
2022/10/15 07:51:01;;;;;;;6.67;5.10;;;15.80;99.90;;;;;;4973361;28;20179;-81
2022/10/15 07:53:27;;;;;;;7.10;4.70;;;15.70;99.90;;;;;;4990810;28;20177;-84
2022/10/15 07:55:56;;;;;;;8.83;6.80;;;15.70;99.90;;;;;;4976405;28;20175;-81
2022/10/15 07:58:23;;;;;;;8.10;6.37;;;15.70;99.90;;;;;;4975374;28;20156;-82
2022/10/15 08:00:48;;;;;;;6.27;5.37;;;15.80;99.90;;;;;;4994892;28;20260;-85
2022/10/15 08:03:14;;;;;;;7.20;4.37;;;15.90;99.90;;;;;;4980168;28;20616;-86
2022/10/15 08:05:39;;;;;;;5.17;4.40;;;15.70;99.90;;;;;;4979055;28;20296;-85
2022/10/15 08:08:05;;;;;;;5.17;4.33;;;15.70;99.90;;;;;;4979419;28;20174;-85
2022/10/15 08:10:31;;;;;;;6.93;4.17;;;15.80;99.90;;;;;;4978962;28;20230;-85
2022/10/15 08:13:02;;;;;;;6.40;4.00;;;15.70;99.90;;;;;;4995471;28;20193;-84
2022/10/15 08:15:28;;;;;;;5.47;4.10;;;15.80;99.90;;;;;;4978744;28;20194;-86
2022/10/15 08:17:55;;;;;;;5.50;4.13;;;15.90;99.90;;;;;;4979079;28;20224;-88
2022/10/15 08:20:22;;;;;;;6.07;3.50;;;15.90;99.90;;;;;;4978359;28;20198;-85
2022/10/15 08:22:49;;;;;;;5.33;3.60;;;15.90;99.90;;;;;;4978739;28;20172;-92
2022/10/15 08:25:15;;;;;;;4.80;3.27;;;15.90;99.90;;;;;;4977809;28;20675;-83
2022/10/15 08:27:41;;;;;;;4.93;3.30;;;15.90;99.90;;;;;;4978688;28;20176;-81
2022/10/15 08:30:07;;;;;;;5.47;3.20;;;15.90;99.90;;;;;;4966683;28;20692;-86
2022/10/15 08:32:32;;;;;;;4.77;3.27;;;15.90;99.90;;;;;;4978045;28;20190;-84
2022/10/15 08:34:58;;;;;;;3.90;2.80;;;15.90;99.90;;;;;;4983135;28;20190;-82
2022/10/15 08:37:24;;;;;;;4.17;2.77;;;16.10;99.90;;;;;;4983467;28;20163;-82
2022/10/15 08:39:55;;;;;;;3.87;2.60;;;16.10;99.90;;;;;;4991996;28;20219;-80
2022/10/15 08:42:36;;;;;;;4.93;3.20;;;16.10;99.90;;;;;;4976651;28;20196;-80
2022/10/15 08:45:16;;;;;;;4.47;3.50;;;16.10;99.90;;;;;;4983436;28;20212;-83
2022/10/15 08:48:11;;;;;;;3.77;2.30;;;16.20;99.90;;;;;;4973976;29;20183;-79
2022/10/15 08:50:59;;;;;;;3.83;2.60;;;16.20;99.90;;;;;;4971752;28;20307;-82
2022/10/15 08:53:48;;;;;;;3.60;2.07;;;16.20;99.90;;;;;;4969973;28;20194;-82
2022/10/15 08:56:44;;;;;;;6.43;4.87;;;16.30;99.90;;;;;;4972078;28;20187;-81
2022/10/15 08:59:38;;;;;;;3.50;2.10;;;16.30;99.90;;;;;;4987858;28;20190;-84
2022/10/15 09:02:23;;;;;;;2.70;1.83;;;16.30;99.90;;;;;;4973647;28;20249;-80
2022/10/15 09:05:11;;;;;;;1.43;1.00;;;16.40;99.90;;;;;;4969013;28;20251;-82
2022/10/15 09:07:55;;;;;;;2.37;1.20;;;16.40;99.90;;;;;;4971514;28;20202;-85
2022/10/15 09:10:31;;;;;;;1.90;1.00;;;16.50;99.90;;;;;;4980766;28;20172;-82
2022/10/15 09:13:24;;;;;;;12.43;8.00;;;16.60;99.90;;;;;;4984884;28;20201;-87
2022/10/15 09:16:04;;;;;;;3.03;1.90;;;16.60;99.90;;;;;;4984545;28;20248;-83
2022/10/15 09:18:34;;;;;;;2.00;1.40;;;16.60;99.90;;;;;;4975015;28;20179;-87
2022/10/15 09:21:04;;;;;;;4.43;1.90;;;16.70;99.90;;;;;;4987430;28;20202;-85
2022/10/15 09:23:34;;;;;;;2.77;1.17;;;16.70;99.90;;;;;;4983211;28;20166;-85
2022/10/15 09:26:31;;;;;;;3.03;1.93;;;16.70;99.90;;;;;;4985323;28;20172;-83
2022/10/15 09:29:40;;;;;;;2.63;1.53;;;16.60;99.90;;;;;;4988187;28;20168;-82
2022/10/15 09:32:44;;;;;;;2.87;1.60;;;16.70;99.90;;;;;;4989321;28;20193;-84
2022/10/15 09:35:14;;;;;;;3.07;1.43;;;16.90;99.90;;;;;;4983726;28;20171;-81
2022/10/15 09:37:49;;;;;;;2.57;1.40;;;16.90;99.90;;;;;;4988064;28;20185;-84
2022/10/15 09:40:38;;;;;;;3.73;1.83;;;17.00;99.90;;;;;;4986676;28;20170;-83
2022/10/15 09:43:05;;;;;;;1.77;1.30;;;17.10;99.90;;;;;;4993245;28;20216;-82
2022/10/15 09:45:35;;;;;;;2.80;1.20;;;17.10;99.90;;;;;;4969039;28;20242;-86
2022/10/15 09:48:22;;;;;;;2.03;1.23;;;17.20;99.90;;;;;;4972236;28;20178;-85
2022/10/15 09:50:57;;;;;;;3.27;1.20;;;17.20;99.90;;;;;;4990797;28;20246;-86
2022/10/15 09:53:44;;;;;;;3.37;1.40;;;17.30;99.90;;;;;;4989696;28;20179;-85
2022/10/15 09:56:17;;;;;;;1.37;0.97;;;17.30;99.90;;;;;;4986062;28;20192;-86
2022/10/15 09:58:57;;;;;;;1.87;1.30;;;17.30;99.90;;;;;;4988153;28;20620;-83
2022/10/15 10:01:30;;;;;;;3.03;1.10;;;17.30;99.90;;;;;;4990859;28;20193;-83
2022/10/15 10:04:22;;;;;;;1.83;1.00;;;17.40;99.90;;;;;;4989465;28;20288;-81
2022/10/15 10:07:26;;;;;;;1.53;1.20;;;17.50;99.90;;;;;;4992348;28;20204;-85
2022/10/15 10:09:55;;;;;;;2.50;1.50;;;17.50;99.90;;;;;;4986149;28;20548;-83
2022/10/15 10:12:29;;;;;;;2.87;1.20;;;17.60;99.90;;;;;;4982089;28;20210;-84
2022/10/15 10:15:02;;;;;;;2.07;1.47;;;17.60;99.90;;;;;;4971897;28;20701;-85
2022/10/15 10:17:29;;;;;;;2.50;1.20;;;17.50;99.90;;;;;;4970208;29;20240;-84
2022/10/15 10:20:16;;;;;;;3.73;1.50;;;17.50;99.90;;;;;;4979280;28;20179;-83
2022/10/15 10:22:51;;;;;;;1.90;1.40;;;17.60;99.90;;;;;;4994664;28;20159;-83
2022/10/15 10:25:26;;;;;;;3.37;1.43;;;17.60;99.90;;;;;;4988026;28;20224;-80
2022/10/15 10:28:02;;;;;;;2.80;1.50;;;17.60;99.90;;;;;;4983247;28;20173;-81
2022/10/15 10:31:07;;;;;;;3.37;1.80;;;17.60;99.90;;;;;;4983484;28;20180;-83
2022/10/15 10:33:41;;;;;;;2.30;1.80;;;17.70;99.90;;;;;;4969509;28;20164;-80
2022/10/15 10:36:19;;;;;;;4.43;1.60;;;17.70;99.90;;;;;;4971737;28;20220;-82
2022/10/15 10:39:03;;;;;;;2.07;1.60;;;17.80;99.90;;;;;;4970574;29;20190;-84
2022/10/15 10:41:54;;;;;;;3.60;1.83;;;17.90;99.90;;;;;;4970640;28;20170;-82
2022/10/15 10:44:32;;;;;;;3.27;1.57;;;18.00;99.90;;;;;;4989167;28;20236;-80
2022/10/15 10:47:19;;;;;;;3.63;1.63;;;18.00;99.90;;;;;;4988220;28;20168;-80
2022/10/15 10:49:50;;;;;;;3.63;2.10;;;18.10;99.90;;;;;;4989696;28;20255;-81
2022/10/15 10:52:36;;;;;;;4.90;2.03;;;18.10;99.90;;;;;;4994862;28;20166;-82
2022/10/15 10:55:23;;;;;;;1.80;1.40;;;18.20;99.90;;;;;;4990063;28;20192;-85
2022/10/15 10:57:56;;;;;;;2.47;1.80;;;18.30;99.90;;;;;;4971985;28;20180;-85
2022/10/15 11:00:44;;;;;;;1.80;1.40;;;18.40;99.90;;;;;;4982712;28;20256;-86
2022/10/15 11:03:35;;;;;;;2.13;1.80;;;18.40;99.90;;;;;;4980011;28;20178;-84
2022/10/15 11:06:31;;;;;;;3.33;1.90;;;18.60;99.90;;;;;;4982180;28;20225;-83
2022/10/15 11:09:24;;;;;;;4.83;2.10;;;18.50;99.90;;;;;;4987335;28;20160;-82
2022/10/15 11:12:29;;;;;;;3.67;1.67;;;18.60;99.90;;;;;;4983183;28;20191;-82
2022/10/15 11:15:06;;;;;;;2.00;1.60;;;18.70;99.90;;;;;;4991606;28;20186;-79
2022/10/15 11:17:47;;;;;;;2.80;1.67;;;18.80;99.90;;;;;;4986881;28;20175;-82
2022/10/15 11:20:40;;;;;;;2.80;1.50;;;18.90;99.90;;;;;;4977883;28;20228;-80
2022/10/15 11:23:21;;;;;;;1.83;1.30;;;18.90;99.90;;;;;;4960641;28;20191;-82
2022/10/15 11:26:13;;;;;;;1.10;1.00;;;18.90;99.90;;;;;;4958022;28;20215;-81
2022/10/15 11:29:19;;;;;;;2.60;1.20;;;18.90;99.90;;;;;;4964009;28;20187;-79
2022/10/15 11:32:10;;;;;;;1.90;1.50;;;19.00;99.90;;;;;;4978661;28;20249;-83
2022/10/15 11:35:15;;;;;;;3.23;2.20;;;19.00;99.90;;;;;;4979091;28;20168;-81
2022/10/15 11:38:28;;;;;;;4.67;3.53;;;19.00;99.90;;;;;;4960304;28;20248;-80
2022/10/15 11:41:20;;;;;;;3.43;2.20;;;19.10;99.90;;;;;;4982532;28;20250;-82
2022/10/15 11:44:23;;;;;;;3.30;2.30;;;19.20;99.90;;;;;;4969919;28;20623;-83
2022/10/15 11:46:52;;;;;;;3.57;2.40;;;19.30;99.90;;;;;;4983668;28;20170;-85
2022/10/15 11:49:38;;;;;;;2.37;1.60;;;19.30;99.90;;;;;;4981628;28;20181;-83
2022/10/15 11:52:30;;;;;;;4.20;1.73;;;19.40;99.90;;;;;;4978963;28;20173;-81
2022/10/15 11:55:16;;;;;;;1.80;1.40;;;19.40;99.90;;;;;;4982507;28;20213;-80
2022/10/15 11:57:50;;;;;;;2.47;1.20;;;19.40;99.90;;;;;;4979613;28;20177;-82
2022/10/15 12:00:34;;;;;;;2.43;1.50;;;19.40;99.90;;;;;;4982066;28;20183;-84
2022/10/15 12:03:29;;;;;;;3.47;1.90;;;19.40;99.90;;;;;;4983454;28;20183;-82
2022/10/15 12:06:10;;;;;;;1.97;1.40;;;19.40;99.90;;;;;;4986150;28;20215;-78
2022/10/15 12:08:38;;;;;;;3.63;2.57;;;19.40;99.90;;;;;;4986648;28;20591;-79
2022/10/15 12:11:27;;;;;;;3.03;2.00;;;19.30;99.90;;;;;;4989832;28;20199;-85
2022/10/15 12:14:17;;;;;;;2.60;2.00;;;19.30;99.90;;;;;;4990679;28;20171;-85
2022/10/15 12:17:14;;;;;;;2.47;1.83;;;19.30;99.90;;;;;;4994242;28;20183;-83
2022/10/15 12:20:05;;;;;;;2.70;1.97;;;19.40;99.90;;;;;;4991995;28;20178;-82
2022/10/15 12:22:33;;;;;;;5.37;3.03;;;19.20;99.90;;;;;;4993546;28;20171;-84
2022/10/15 12:25:00;;;;;;;3.40;2.40;;;19.00;99.90;;;;;;4977744;28;20202;-83
2022/10/15 12:27:34;;;;;;;3.23;1.50;;;18.60;99.70;;;;;;4977952;28;20164;-82
2022/10/15 12:30:02;;;;;;;2.50;1.70;;;18.30;99.90;;;;;;4976365;28;20178;-86
2022/10/15 12:32:50;;;;;;;2.13;1.50;;;18.30;98.60;;;;;;4977633;28;20504;-83
2022/10/15 12:35:31;;;;;;;1.90;0.90;;;18.30;91.40;;;;;;4980317;28;20537;-83
2022/10/15 12:38:09;;;;;;;2.23;1.07;;;18.20;79.40;;;;;;4974194;28;20187;-84
2022/10/15 12:40:37;;;;;;;4.87;1.10;;;18.20;78.40;;;;;;4974580;28;20210;-86
2022/10/15 12:43:17;;;;;;;1.70;0.80;;;18.20;73.70;;;;;;4975630;28;20300;-86
2022/10/15 12:45:57;;;;;;;4.23;1.40;;;18.30;69.80;;;;;;4975468;28;20210;-87
2022/10/15 12:48:35;;;;;;;4.77;1.50;;;18.30;73.10;;;;;;4976816;28;20193;-86
2022/10/15 12:51:28;;;;;;;2.20;1.13;;;18.40;75.10;;;;;;4979490;28;20219;-85
2022/10/15 12:53:56;;;;;;;3.30;1.30;;;18.70;69.80;;;;;;4981557;28;20220;-82
2022/10/15 12:56:24;;;;;;;2.20;1.27;;;18.90;66.00;;;;;;4982056;28;20180;-87
2022/10/15 12:58:54;;;;;;;3.40;1.20;;;19.00;62.20;;;;;;4989149;28;20177;-83
2022/10/15 13:01:20;;;;;;;4.27;0.70;;;19.20;53.10;;;;;;4989573;28;20198;-82
2022/10/15 13:03:49;;;;;;;2.07;0.60;;;19.00;50.10;;;;;;4986179;28;20262;-83
2022/10/15 13:06:21;;;;;;;2.90;1.37;;;18.80;46.80;;;;;;4980676;28;20213;-87
2022/10/15 13:08:53;;;;;;;2.07;1.07;;;18.70;56.70;;;;;;4979581;28;20159;-86